Time;durP1;ratioP1;P1;durP2;ratioP2;P2;SDS_P1;SDS_P2;PMS_P1;PMS_P2;Temp;Humidity;BMP_temperature;BMP_pressure;BME280_temperature;BME280_humidity;BME280_pressure;Samples;Min_cycle;Max_cycle;Signal;HPM_P1;HPM_P2
2022/03/31 00:01:29;;;;;;;2.28;1.23;;;;;;;1.48;37.12;100871.41;5019299;28;20340;-59
2022/03/31 00:04:00;;;;;;;2.75;1.38;;;;;;;1.52;37.20;100868.06;5019158;28;20394;-59
2022/03/31 00:06:33;;;;;;;2.03;1.20;;;;;;;1.48;36.62;100872.28;5017888;28;20118;-60
2022/03/31 00:09:04;;;;;;;2.05;1.20;;;;;;;1.22;35.54;100871.50;5025769;28;20080;-60
2022/03/31 00:11:35;;;;;;;2.97;1.50;;;;;;;1.22;37.55;100874.06;5038964;28;20050;-60
2022/03/31 00:14:06;;;;;;;4.60;1.40;;;;;;;1.34;38.64;100882.97;5039739;28;20064;-60
2022/03/31 00:16:37;;;;;;;3.45;1.30;;;;;;;1.46;37.39;100888.50;5039823;28;20451;-60
2022/03/31 00:19:08;;;;;;;7.40;1.75;;;;;;;1.69;37.98;100890.06;5013185;28;20045;-60
2022/03/31 00:22:24;;;;;;;5.70;1.70;;;;;;;1.63;37.27;100881.31;5012564;28;20065;-60
2022/03/31 00:24:56;;;;;;;7.45;1.75;;;;;;;1.47;36.66;100885.09;5035426;28;20334;-60
2022/03/31 00:27:27;;;;;;;4.80;2.22;;;;;;;1.41;37.86;100875.50;5001565;28;20368;-60
2022/03/31 00:29:57;;;;;;;3.35;1.52;;;;;;;0.90;36.50;100793.28;5024157;28;20141;-60
2022/03/31 00:32:28;;;;;;;3.63;1.40;;;;;;;1.55;37.06;100878.50;5026417;28;20061;-60
2022/03/31 00:34:59;;;;;;;2.45;1.50;;;;;;;1.66;35.58;100874.53;5025842;28;20068;-60
2022/03/31 00:37:42;;;;;;;3.90;1.30;;;;;;;1.77;36.54;100863.66;5026197;28;20053;-60
2022/03/31 00:40:18;;;;;;;3.25;1.40;;;;;;;2.05;35.90;100883.38;5025957;28;20080;-59
2022/03/31 00:42:51;;;;;;;2.47;1.30;;;;;;;1.80;34.74;100819.94;5025817;28;20351;-59
2022/03/31 00:45:23;;;;;;;2.53;1.55;;;;;;;2.26;35.06;100885.66;5025810;28;20057;-58
2022/03/31 00:47:55;;;;;;;3.67;1.50;;;;;;;2.25;34.07;100874.47;5025732;28;20340;-59
2022/03/31 00:50:26;;;;;;;1.88;1.10;;;;;;;2.07;35.36;100867.13;5025666;28;20088;-58
2022/03/31 00:52:57;;;;;;;2.13;1.20;;;;;;;2.12;34.53;100893.91;5025873;28;20112;-59
2022/03/31 00:55:50;;;;;;;1.85;1.15;;;;;;;2.14;34.81;100887.06;5025453;28;20351;-59
2022/03/31 00:58:21;;;;;;;3.10;1.13;;;;;;;2.16;34.15;100885.41;5025689;28;20785;-59
2022/03/31 01:00:52;;;;;;;3.75;1.40;;;;;;;2.26;34.92;100876.22;5025504;28;20087;-59
2022/03/31 01:03:24;;;;;;;4.38;1.60;;;;;;;2.32;35.82;100875.50;5025525;28;20054;-59
2022/03/31 01:05:55;;;;;;;2.55;1.30;;;;;;;2.43;33.95;100879.25;5024703;28;20103;-59
2022/03/31 01:08:26;;;;;;;2.13;1.25;;;;;;;2.23;33.65;100880.44;5025363;28;20117;-59
2022/03/31 01:10:59;;;;;;;1.83;1.20;;;;;;;2.05;35.30;100880.78;5025756;28;20080;-59
2022/03/31 01:13:30;;;;;;;5.20;1.20;;;;;;;2.14;34.22;100887.06;5025808;28;20049;-59
2022/03/31 01:16:01;;;;;;;4.05;1.27;;;;;;;2.19;33.76;100886.31;5025258;28;20099;-59
2022/03/31 01:18:32;;;;;;;4.20;1.30;;;;;;;2.21;34.60;100882.09;5025467;28;20355;-59
2022/03/31 01:21:03;;;;;;;4.10;1.27;;;;;;;2.33;34.11;100882.41;5024503;28;20049;-59
2022/03/31 01:23:36;;;;;;;3.25;1.40;;;;;;;2.59;34.78;100876.22;5022908;28;20061;-59
2022/03/31 01:26:10;;;;;;;1.75;1.10;;;;;;;2.61;34.35;100888.31;5025117;28;20060;-60
2022/03/31 01:28:43;;;;;;;3.55;1.30;;;;;;;2.33;32.88;100866.94;5025343;28;20068;-60
2022/03/31 01:31:14;;;;;;;7.85;1.40;;;;;;;2.52;33.99;100879.50;5024618;28;20077;-59
2022/03/31 01:33:45;;;;;;;2.03;1.27;;;;;;;2.67;33.87;100883.28;5024491;28;20117;-60
2022/03/31 01:36:16;;;;;;;3.83;1.48;;;;;;;2.29;32.29;100847.06;5024277;28;20037;-60
2022/03/31 01:38:50;;;;;;;2.70;1.33;;;;;;;2.49;33.30;100874.25;5024017;28;20038;-60
2022/03/31 01:41:21;;;;;;;1.58;1.15;;;;;;;2.76;33.24;100874.06;5023833;28;20105;-60
2022/03/31 01:43:52;;;;;;;2.60;1.23;;;;;;;3.02;32.48;100866.09;5024095;28;20064;-60
2022/03/31 01:46:23;;;;;;;3.17;1.15;;;;;;;3.25;32.04;100864.06;5023936;28;20049;-60
2022/03/31 01:48:56;;;;;;;2.35;1.33;;;;;;;3.12;33.00;100856.84;5024076;28;20049;-59
2022/03/31 01:51:27;;;;;;;3.20;1.30;;;;;;;3.05;34.48;100855.84;5023676;28;20061;-60
2022/03/31 01:54:00;;;;;;;2.72;1.70;;;;;;;2.89;34.19;100859.75;5023846;28;20067;-59
2022/03/31 01:56:31;;;;;;;5.50;1.20;;;;;;;2.80;34.89;100844.94;5024953;28;20276;-60
2022/03/31 01:59:02;;;;;;;3.00;1.20;;;;;;;2.74;33.93;100864.56;5024864;28;20080;-59
2022/03/31 02:01:33;;;;;;;2.22;1.25;;;;;;;2.52;34.64;100852.81;5024988;28;20061;-59
2022/03/31 02:04:05;;;;;;;5.85;2.28;;;;;;;2.40;35.69;100863.69;5024536;28;20068;-59
2022/03/31 02:06:36;;;;;;;5.90;3.25;;;;;;;2.33;34.24;100854.91;5024417;28;20352;-59
2022/03/31 02:09:09;;;;;;;3.30;1.42;;;;;;;2.25;35.88;100832.34;5024031;28;20114;-59
2022/03/31 02:11:41;;;;;;;4.32;2.45;;;;;;;2.54;35.99;100852.00;5024429;28;20100;-59
2022/03/31 02:14:12;;;;;;;7.90;1.67;;;;;;;2.69;35.85;100855.81;5024141;28;20076;-59
2022/03/31 02:16:43;;;;;;;5.68;1.40;;;;;;;2.72;35.23;100835.25;5024395;28;20052;-60
2022/03/31 02:19:14;;;;;;;7.78;1.65;;;;;;;2.64;34.47;100847.09;5024130;28;20041;-59
2022/03/31 02:21:46;;;;;;;5.03;2.10;;;;;;;2.51;35.30;100835.59;5023294;28;20147;-59
2022/03/31 02:24:18;;;;;;;4.82;2.13;;;;;;;2.44;34.67;100839.72;5022909;28;20576;-59
2022/03/31 02:26:49;;;;;;;7.35;2.67;;;;;;;2.37;35.73;100832.66;5022910;28;20073;-59
2022/03/31 02:29:21;;;;;;;2.30;1.27;;;;;;;2.32;35.91;100823.91;5023698;28;20284;-59
2022/03/31 02:31:58;;;;;;;5.72;1.30;;;;;;;2.41;35.61;100834.47;5023274;28;20049;-59
2022/03/31 02:34:29;;;;;;;4.15;1.50;;;;;;;2.38;35.05;100818.94;5023209;28;20049;-60
2022/03/31 02:36:59;;;;;;;2.95;1.20;;;;;;;2.47;35.90;100824.34;5023655;28;20048;-60
2022/03/31 02:39:32;;;;;;;3.95;1.35;;;;;;;2.33;37.30;100800.75;5023543;28;20038;-60
2022/03/31 02:42:03;;;;;;;4.97;1.73;;;;;;;2.23;36.94;100793.63;5023318;28;20109;-60
2022/03/31 02:44:34;;;;;;;6.90;1.70;;;;;;;2.40;36.17;100822.44;5023740;28;20391;-60
2022/03/31 02:47:05;;;;;;;1.88;1.40;;;;;;;2.16;35.56;100782.28;5023111;28;20092;-60
2022/03/31 02:49:36;;;;;;;4.10;1.20;;;;;;;2.53;36.79;100824.47;5023572;28;20072;-60
2022/03/31 02:52:08;;;;;;;4.60;1.58;;;;;;;2.65;36.67;100813.59;5022553;28;20351;-60
2022/03/31 02:57:28;;;;;;;3.97;1.58;;;;;;;2.74;36.52;100813.81;5022020;28;20116;-61
2022/03/31 02:59:59;;;;;;;6.00;1.80;;;;;;;2.63;35.62;100806.66;5022864;28;20229;-60
2022/03/31 03:02:29;;;;;;;3.90;1.35;;;;;;;2.54;34.24;100815.03;5022904;28;20768;-60
2022/03/31 03:05:00;;;;;;;2.13;1.10;;;;;;;2.57;35.38;100795.34;5024419;28;20104;-60
2022/03/31 03:07:30;;;;;;;3.97;1.75;;;;;;;2.64;36.65;100800.66;5023360;28;20358;-61
2022/03/31 03:10:03;;;;;;;2.28;1.30;;;;;;;2.46;34.96;100764.97;5022935;28;20604;-61
2022/03/31 03:12:35;;;;;;;3.20;1.40;;;;;;;2.57;36.70;100785.03;5022811;28;20087;-60
2022/03/31 03:15:06;;;;;;;4.38;1.70;;;;;;;2.64;36.60;100795.50;5023509;28;20105;-60
2022/03/31 03:17:37;;;;;;;5.05;1.60;;;;;;;2.54;35.63;100773.75;5023483;28;20077;-60
2022/03/31 03:20:11;;;;;;;9.13;1.90;;;;;;;2.31;34.94;100737.09;5023704;28;20084;-61
2022/03/31 03:22:44;;;;;;;5.72;2.30;;;;;;;2.56;35.67;100775.53;5023688;28;20053;-60
2022/03/31 03:25:18;;;;;;;20.42;3.05;;;;;;;2.16;34.89;100714.38;5023555;28;20050;-60
2022/03/31 03:27:50;;;;;;;3.63;1.70;;;;;;;2.53;33.36;100778.03;5024335;28;20137;-59
2022/03/31 03:30:22;;;;;;;2.67;1.80;;;;;;;2.57;35.09;100795.34;5026905;28;20065;-60
2022/03/31 03:32:53;;;;;;;10.85;1.65;;;;;;;2.49;35.10;100781.38;5026039;28;20300;-60
2022/03/31 03:35:24;;;;;;;4.88;1.50;;;;;;;2.52;34.57;100785.72;5027047;28;20060;-60
2022/03/31 03:37:55;;;;;;;2.97;1.42;;;;;;;2.57;35.75;100778.97;5026175;28;20088;-59
2022/03/31 03:40:29;;;;;;;2.55;1.23;;;;;;;2.56;34.42;100765.22;5026019;28;20088;-60
2022/03/31 03:43:00;;;;;;;4.68;1.30;;;;;;;2.54;34.09;100759.13;5027099;28;20092;-60
2022/03/31 03:45:31;;;;;;;2.72;1.10;;;;;;;2.52;35.71;100776.31;5026548;28;20116;-59
2022/03/31 03:48:01;;;;;;;7.43;1.05;;;;;;;2.57;36.39;100768.66;5026269;28;20294;-60
2022/03/31 03:50:32;;;;;;;6.80;1.60;;;;;;;2.31;32.72;100749.97;5027005;28;20117;-60
2022/03/31 03:53:03;;;;;;;9.43;2.80;;;;;;;2.39;34.55;100763.94;5027101;28;20168;-60
2022/03/31 03:55:37;;;;;;;10.48;1.65;;;;;;;2.42;35.87;100758.88;5027383;28;20061;-60
2022/03/31 03:58:08;;;;;;;5.57;1.10;;;;;;;2.37;35.86;100750.13;5026001;28;20070;-59
2022/03/31 04:00:39;;;;;;;7.50;1.17;;;;;;;2.43;35.03;100750.28;5026831;28;20453;-60
2022/03/31 04:03:11;;;;;;;7.72;1.40;;;;;;;2.15;36.73;100703.19;5026680;28;20057;-59
2022/03/31 04:05:41;;;;;;;2.63;1.30;;;;;;;2.24;34.35;100718.00;5026673;28;20208;-60
2022/03/31 04:08:12;;;;;;;3.92;1.40;;;;;;;2.45;37.55;100753.78;5026597;28;20053;-60
2022/03/31 04:10:44;;;;;;;4.10;1.38;;;;;;;2.23;37.22;100746.34;5026430;28;20525;-60
2022/03/31 04:13:15;;;;;;;6.65;1.30;;;;;;;2.27;38.60;100753.31;5026388;28;20439;-60
2022/03/31 04:15:46;;;;;;;3.83;1.52;;;;;;;2.27;40.52;100748.16;5026650;28;20076;-60
2022/03/31 04:18:17;;;;;;;4.40;1.58;;;;;;;1.93;39.97;100686.31;5026868;28;20175;-60
2022/03/31 04:20:47;;;;;;;2.08;1.35;;;;;;;2.26;37.56;100751.56;5026111;28;20228;-60
2022/03/31 04:23:18;;;;;;;2.33;1.30;;;;;;;2.23;38.83;100738.63;5026144;28;20559;-60
2022/03/31 04:25:50;;;;;;;5.03;1.63;;;;;;;2.38;40.87;100752.75;5026479;28;20084;-59
2022/03/31 04:28:21;;;;;;;2.00;1.40;;;;;;;2.19;37.74;100739.34;5026173;28;20061;-59
2022/03/31 04:30:52;;;;;;;5.15;1.20;;;;;;;2.27;38.69;100753.31;5026015;28;20065;-60
2022/03/31 04:33:23;;;;;;;10.60;1.90;;;;;;;2.29;39.73;100746.50;5026101;28;20042;-60
2022/03/31 04:35:53;;;;;;;2.97;1.20;;;;;;;2.34;39.29;100760.38;5025317;28;20085;-60
2022/03/31 04:38:24;;;;;;;5.22;1.60;;;;;;;2.29;39.76;100741.34;5025284;28;20072;-60
2022/03/31 04:40:56;;;;;;;3.28;1.38;;;;;;;2.29;38.70;100751.66;5026109;28;20042;-61
2022/03/31 04:43:27;;;;;;;6.40;1.63;;;;;;;2.30;40.69;100748.25;5025787;28;20113;-60
2022/03/31 04:45:58;;;;;;;4.10;1.33;;;;;;;2.21;37.75;100745.44;5026169;28;20061;-60
2022/03/31 04:48:29;;;;;;;6.30;1.33;;;;;;;2.13;38.81;100751.25;5026150;28;20310;-60
2022/03/31 04:50:59;;;;;;;1.88;1.20;;;;;;;2.05;35.92;100745.03;5025580;28;20089;-60
2022/03/31 04:53:30;;;;;;;2.47;1.30;;;;;;;2.03;37.45;100744.13;5025666;28;20049;-61
2022/03/31 04:56:02;;;;;;;2.95;1.40;;;;;;;2.09;38.09;100748.56;5025578;28;20108;-60
2022/03/31 04:58:33;;;;;;;3.60;1.65;;;;;;;2.10;37.77;100738.31;5025358;28;20300;-60
2022/03/31 05:01:04;;;;;;;2.15;1.10;;;;;;;1.97;38.01;100754.25;5025693;28;20375;-60
2022/03/31 05:03:35;;;;;;;4.00;1.50;;;;;;;2.02;39.81;100747.56;5025384;28;20057;-60
2022/03/31 05:06:07;;;;;;;6.55;1.23;;;;;;;2.00;38.69;100744.06;5025250;28;20046;-60
2022/03/31 05:08:39;;;;;;;2.25;1.15;;;;;;;2.01;39.87;100758.69;5025361;28;20054;-60
2022/03/31 05:11:11;;;;;;;3.83;1.10;;;;;;;1.98;38.10;100756.03;5025416;28;20056;-60
2022/03/31 05:13:41;;;;;;;3.92;1.10;;;;;;;1.94;36.73;100743.88;5025021;28;20049;-61
2022/03/31 05:16:12;;;;;;;3.03;1.10;;;;;;;2.03;37.77;100749.28;5024946;28;20318;-60
2022/03/31 05:18:43;;;;;;;5.13;1.98;;;;;;;2.10;34.52;100746.03;5025236;28;20049;-61
2022/03/31 05:21:14;;;;;;;3.05;1.20;;;;;;;2.04;36.67;100745.84;5025423;28;20348;-61
2022/03/31 05:23:44;;;;;;;3.83;1.00;;;;;;;2.09;34.37;100748.56;5024726;28;20054;-61
2022/03/31 05:26:17;;;;;;;1.60;1.05;;;;;;;2.06;34.57;100754.50;5024974;28;20356;-61
2022/03/31 05:28:47;;;;;;;4.43;0.98;;;;;;;1.98;34.17;100745.72;5024925;28;20065;-61
2022/03/31 05:31:18;;;;;;;2.45;1.17;;;;;;;1.96;35.24;100734.47;5024411;28;20085;-61
2022/03/31 05:33:49;;;;;;;4.28;1.20;;;;;;;2.03;34.76;100743.25;5023586;28;20112;-60
2022/03/31 05:36:19;;;;;;;1.55;1.00;;;;;;;1.63;32.93;100686.41;5023860;28;20077;-61
2022/03/31 05:38:52;;;;;;;2.90;1.20;;;;;;;1.84;35.34;100731.59;5024094;28;20042;-61
2022/03/31 05:41:25;;;;;;;3.05;1.27;;;;;;;1.81;32.29;100746.97;5023881;28;20387;-61
2022/03/31 05:43:55;;;;;;;3.17;1.40;;;;;;;1.59;33.92;100733.50;5023746;28;20125;-61
2022/03/31 05:46:27;;;;;;;4.80;1.10;;;;;;;1.54;33.57;100727.34;5023676;28;20346;-61
2022/03/31 05:48:58;;;;;;;3.78;1.08;;;;;;;1.58;34.76;100734.34;5024327;28;20089;-61
2022/03/31 05:51:29;;;;;;;1.17;1.08;;;;;;;1.49;34.16;100728.91;5024325;28;20184;-61
2022/03/31 05:54:01;;;;;;;2.78;1.20;;;;;;;1.56;36.31;100738.56;5024893;28;20103;-61
2022/03/31 05:56:34;;;;;;;3.22;1.15;;;;;;;1.59;35.71;100741.22;5024639;28;20274;-62
2022/03/31 05:59:06;;;;;;;4.15;1.17;;;;;;;1.04;36.17;100639.28;5024724;28;20081;-62
2022/03/31 06:01:36;;;;;;;7.97;1.30;;;;;;;1.51;34.66;100732.41;5024645;28;20073;-61
2022/03/31 06:04:07;;;;;;;2.00;1.08;;;;;;;1.48;35.11;100732.34;5024835;28;20097;-61
2022/03/31 06:06:38;;;;;;;1.80;1.10;;;;;;;1.55;34.69;100738.50;5024731;28;20124;-62
2022/03/31 06:09:09;;;;;;;1.73;1.02;;;;;;;1.54;33.52;100727.34;5023513;28;20316;-61
2022/03/31 06:11:41;;;;;;;2.22;1.10;;;;;;;1.59;34.40;100736.06;5024622;28;20058;-62
2022/03/31 06:14:12;;;;;;;1.98;1.20;;;;;;;1.48;34.57;100727.19;5024215;28;20136;-62
2022/03/31 06:16:43;;;;;;;1.65;1.05;;;;;;;1.52;31.85;100734.16;5024082;28;20049;-63
2022/03/31 06:19:13;;;;;;;3.92;1.10;;;;;;;1.60;34.03;100743.00;5023868;28;20045;-62
2022/03/31 06:21:44;;;;;;;1.52;0.90;;;;;;;1.59;31.45;100741.22;5024077;28;20271;-61
2022/03/31 06:24:15;;;;;;;3.13;1.33;;;;;;;1.53;32.78;100742.78;5023706;28;20053;-62
2022/03/31 06:26:47;;;;;;;5.32;1.70;;;;;;;1.53;32.30;100735.91;5024055;28;20045;-62
2022/03/31 06:29:18;;;;;;;7.93;2.00;;;;;;;1.50;33.08;100735.84;5023952;28;20056;-62
2022/03/31 06:31:54;;;;;;;2.22;1.52;;;;;;;1.34;31.37;100743.94;5024079;28;20057;-62
2022/03/31 06:34:25;;;;;;;3.75;1.40;;;;;;;1.40;33.67;100738.97;5024033;28;20057;-62
2022/03/31 06:36:56;;;;;;;5.20;1.45;;;;;;;1.34;33.57;100738.78;5023956;28;20110;-61
2022/03/31 06:39:27;;;;;;;3.55;1.30;;;;;;;1.38;34.44;100738.06;5023678;28;20060;-61
2022/03/31 06:41:59;;;;;;;2.67;1.35;;;;;;;1.37;31.03;100750.03;5023800;28;20084;-62
2022/03/31 06:44:30;;;;;;;1.05;0.90;;;;;;;1.38;32.00;100750.94;5023850;28;20327;-62
2022/03/31 06:47:00;;;;;;;3.00;1.20;;;;;;;1.29;31.09;100747.25;5023625;28;20049;-62
2022/03/31 06:49:31;;;;;;;2.25;1.27;;;;;;;1.31;32.29;100746.44;5023691;28;20344;-62
2022/03/31 06:52:02;;;;;;;1.13;1.00;;;;;;;1.29;32.09;100747.25;5023574;28;20061;-62
2022/03/31 06:54:32;;;;;;;2.00;1.50;;;;;;;1.29;34.10;100752.41;5024306;28;20057;-61
2022/03/31 06:57:05;;;;;;;3.05;1.30;;;;;;;1.22;31.78;100735.06;5023962;28;20053;-62
2022/03/31 06:59:36;;;;;;;1.95;1.05;;;;;;;1.24;32.50;100728.22;5024304;28;20054;-62
2022/03/31 07:02:07;;;;;;;5.72;1.73;;;;;;;1.25;33.16;100750.59;5023589;28;20053;-61
2022/03/31 07:04:38;;;;;;;4.43;1.60;;;;;;;1.20;31.00;100747.00;5025630;28;20120;-61
2022/03/31 07:07:09;;;;;;;8.23;3.08;;;;;;;1.19;33.54;100755.53;5024258;28;20417;-61
2022/03/31 07:09:40;;;;;;;7.15;2.78;;;;;;;1.17;35.77;100758.91;5027625;28;20144;-62
2022/03/31 07:12:13;;;;;;;3.20;2.10;;;;;;;1.09;35.34;100748.38;5027834;28;20364;-61
2022/03/31 07:14:44;;;;;;;11.50;3.55;;;;;;;1.14;33.14;100754.53;5027702;28;20042;-61
2022/03/31 07:17:14;;;;;;;3.47;1.40;;;;;;;1.15;34.95;100751.16;5027305;28;20260;-61
2022/03/31 07:19:45;;;;;;;5.82;1.65;;;;;;;1.14;35.76;100759.69;5027408;28;20373;-61
2022/03/31 07:22:16;;;;;;;4.07;1.60;;;;;;;1.13;35.52;100765.66;5025796;28;20052;-62
2022/03/31 07:24:46;;;;;;;5.70;1.17;;;;;;;1.11;36.67;100766.44;5026964;28;20233;-62
2022/03/31 07:27:19;;;;;;;2.85;1.13;;;;;;;1.05;38.30;100764.56;5027116;28;20352;-62
2022/03/31 07:29:50;;;;;;;7.25;1.25;;;;;;;0.62;35.71;100714.34;5024983;28;20053;-63
2022/03/31 07:32:20;;;;;;;3.90;1.30;;;;;;;0.95;36.52;100765.09;5025014;28;20425;-63
2022/03/31 07:34:51;;;;;;;2.00;1.13;;;;;;;0.95;36.68;100770.22;5024632;28;20062;-62
2022/03/31 07:37:22;;;;;;;1.42;1.00;;;;;;;0.92;37.50;100777.88;5026891;28;20061;-62
2022/03/31 07:39:54;;;;;;;4.35;1.30;;;;;;;0.86;37.27;100766.56;5027146;28;20049;-62
2022/03/31 07:42:31;;;;;;;4.53;1.17;;;;;;;0.84;36.76;100770.78;5026858;28;20054;-62
2022/03/31 07:45:01;;;;;;;1.77;1.00;;;;;;;0.76;36.45;100774.81;5027078;28;20116;-63
2022/03/31 07:47:32;;;;;;;1.98;1.30;;;;;;;0.71;37.62;100775.50;5026944;28;20893;-63
2022/03/31 07:50:03;;;;;;;5.03;1.38;;;;;;;0.68;38.55;100778.84;5026756;28;20762;-63
2022/03/31 07:52:34;;;;;;;4.13;1.50;;;;;;;0.61;39.76;100776.91;5026543;28;20061;-63
2022/03/31 07:55:09;;;;;;;5.60;1.58;;;;;;;0.51;38.21;100780.00;5026985;28;20064;-62
2022/03/31 07:57:42;;;;;;;4.20;1.90;;;;;;;0.43;39.25;100785.78;5026815;28;20260;-62
2022/03/31 08:00:14;;;;;;;8.13;1.55;;;;;;;0.35;38.88;100776.94;5017110;28;20061;-62
2022/03/31 08:02:46;;;;;;;3.80;2.03;;;;;;;0.24;38.13;100768.00;5026689;28;20121;-61
2022/03/31 08:05:19;;;;;;;6.55;2.22;;;;;;;0.24;38.53;100787.69;5026280;28;20112;-61
2022/03/31 08:07:51;;;;;;;13.50;2.55;;;;;;;0.21;38.68;100780.75;5026444;28;20279;-62
2022/03/31 08:10:22;;;;;;;7.30;2.33;;;;;;;0.05;40.10;100773.31;5026372;28;20113;-62
2022/03/31 08:12:55;;;;;;;6.93;2.80;;;;;;;0.09;39.90;100782.88;5026470;28;20061;-62
2022/03/31 08:15:25;;;;;;;5.88;2.58;;;;;;;0.07;39.82;100789.66;5025905;28;20057;-62
2022/03/31 08:17:58;;;;;;;5.65;2.45;;;;;;;0.05;38.51;100789.63;5026265;28;20287;-61
2022/03/31 08:20:29;;;;;;;7.18;1.77;;;;;;;-0.10;39.45;100777.13;5026248;28;20048;-61
2022/03/31 08:23:00;;;;;;;4.05;1.42;;;;;;;-0.01;38.82;100786.84;5025962;28;20046;-61
2022/03/31 08:25:30;;;;;;;7.82;1.60;;;;;;;-0.10;38.88;100792.53;5026117;28;20929;-61
2022/03/31 08:28:02;;;;;;;10.25;1.60;;;;;;;-0.16;39.85;100787.16;5025197;28;20057;-62
2022/03/31 08:30:35;;;;;;;9.02;1.48;;;;;;;-0.10;40.65;100800.25;5024677;28;20062;-61
2022/03/31 08:33:05;;;;;;;5.43;1.30;;;;;;;-0.20;41.03;100804.97;5024695;28;20240;-62
2022/03/31 08:35:37;;;;;;;8.18;1.40;;;;;;;-0.38;40.54;100800.06;5025183;28;20089;-61
2022/03/31 08:38:07;;;;;;;8.50;1.95;;;;;;;-1.13;40.84;100698.06;5024837;28;20262;-61
2022/03/31 08:40:38;;;;;;;9.90;1.73;;;;;;;-0.56;41.10;100806.28;5025721;28;20065;-62
2022/03/31 08:43:11;;;;;;;11.07;1.77;;;;;;;-0.68;41.26;100803.25;5025833;28;20096;-62
2022/03/31 08:45:42;;;;;;;4.30;2.50;;;;;;;-0.79;41.12;100796.84;5026150;28;20050;-62
2022/03/31 08:48:13;;;;;;;7.75;1.85;;;;;;;-0.85;41.28;100791.47;5025808;28;20264;-61
2022/03/31 08:50:45;;;;;;;7.70;1.60;;;;;;;-0.84;43.27;100806.94;5025935;28;20049;-61
2022/03/31 08:53:16;;;;;;;5.35;1.45;;;;;;;-0.82;44.00;100807.88;5025539;28;20422;-61
2022/03/31 08:55:46;;;;;;;41.33;3.17;;;;;;;-0.64;46.51;100817.94;5025906;28;20046;-61
2022/03/31 08:58:19;;;;;;;12.73;2.53;;;;;;;-0.65;46.06;100821.31;5025945;28;20060;-62
2022/03/31 09:00:49;;;;;;;12.98;2.30;;;;;;;-0.78;48.28;100819.09;5025347;28;20109;-61
2022/03/31 09:03:20;;;;;;;9.65;2.10;;;;;;;-0.68;47.33;100826.34;5025455;28;20054;-62
2022/03/31 09:05:52;;;;;;;4.63;2.00;;;;;;;-0.80;46.84;100815.59;5025396;28;20081;-62
2022/03/31 09:08:23;;;;;;;18.15;3.25;;;;;;;-0.91;45.08;100828.91;5025329;28;20053;-62
2022/03/31 09:11:00;;;;;;;10.90;2.90;;;;;;;-1.32;45.21;100771.75;5015318;28;20054;-62
2022/03/31 09:13:35;;;;;;;11.43;2.30;;;;;;;-1.02;44.41;100840.44;5025418;28;20105;-62
2022/03/31 09:16:09;;;;;;;16.42;3.78;;;;;;;-1.08;46.40;100829.91;5025521;28;20065;-62
2022/03/31 09:18:43;;;;;;;4.78;2.40;;;;;;;-1.01;45.97;100837.03;5025015;28;20051;-62
2022/03/31 09:21:15;;;;;;;8.55;2.50;;;;;;;-0.96;46.23;100840.66;5025329;28;20042;-62
2022/03/31 09:23:47;;;;;;;2.78;1.77;;;;;;;-0.96;45.62;100845.81;5024690;28;20049;-62
2022/03/31 09:26:19;;;;;;;3.17;1.90;;;;;;;-0.83;45.62;100851.41;5024177;28;20096;-62
2022/03/31 09:28:51;;;;;;;3.60;1.70;;;;;;;-1.43;45.05;100744.78;5025066;28;20061;-62
2022/03/31 09:31:27;;;;;;;4.15;1.88;;;;;;;-0.99;45.19;100850.81;5024916;28;20057;-62
2022/03/31 09:34:00;;;;;;;5.93;2.00;;;;;;;-1.15;47.21;100853.56;5024725;28;20100;-62
2022/03/31 09:36:30;;;;;;;6.95;3.00;;;;;;;-1.26;46.06;100849.72;5024631;28;20070;-65
2022/03/31 09:39:03;;;;;;;6.78;2.53;;;;;;;-1.29;43.86;100859.84;5024805;28;20053;-62
2022/03/31 09:41:35;;;;;;;9.40;2.60;;;;;;;-1.25;46.00;100866.84;5024569;28;20073;-62
2022/03/31 09:44:09;;;;;;;4.63;2.65;;;;;;;-1.30;46.43;100874.34;5024684;28;20062;-62
2022/03/31 09:46:42;;;;;;;9.63;2.08;;;;;;;-1.42;48.04;100869.59;5024606;28;20221;-62
2022/03/31 09:49:15;;;;;;;31.85;3.70;;;;;;;-1.63;46.06;100878.94;5024617;28;20053;-62
2022/03/31 09:51:48;;;;;;;7.60;2.03;;;;;;;-1.92;45.36;100870.88;5023450;28;20060;-62
2022/03/31 09:54:20;;;;;;;9.25;2.17;;;;;;;-2.40;46.04;100812.47;5022957;28;20071;-62
2022/03/31 09:56:50;;;;;;;20.95;3.33;;;;;;;-2.14;47.87;100873.31;5024060;28;20121;-62
2022/03/31 09:59:24;;;;;;;10.88;2.22;;;;;;;-2.23;46.67;100877.19;5023723;28;20370;-62
2022/03/31 10:01:55;;;;;;;11.18;2.25;;;;;;;-2.22;45.30;100895.97;5024350;28;20057;-62
2022/03/31 10:04:27;;;;;;;13.65;2.42;;;;;;;-2.24;48.10;100883.13;5024203;28;20364;-62
2022/03/31 10:06:58;;;;;;;18.40;2.53;;;;;;;-2.21;45.85;100898.63;5024187;28;20049;-62
2022/03/31 10:09:28;;;;;;;37.03;3.30;;;;;;;-2.11;46.75;100899.03;5024334;28;20055;-62
2022/03/31 10:12:07;;;;;;;128.82;10.50;;;;;;;-2.10;51.28;100900.78;5024179;28;20077;-62
2022/03/31 10:14:47;;;;;;;50.72;3.97;;;;;;;-2.27;50.25;100893.22;5023864;28;20395;-62
2022/03/31 10:17:18;;;;;;;25.20;3.08;;;;;;;-2.42;49.10;100897.63;5023947;28;20304;-62
2022/03/31 10:19:49;;;;;;;19.20;2.92;;;;;;;-3.23;48.41;100777.06;5023582;28;20085;-62
2022/03/31 10:25:11;;;;;;;7.68;2.00;;;;;;;-3.15;48.23;100829.44;5023783;28;21227;-62
2022/03/31 10:27:46;;;;;;;15.98;10.90;;;;;;;-3.03;49.80;100898.19;5023577;28;20061;-62
2022/03/31 10:30:22;;;;;;;7.85;4.50;;;;;;;-3.32;52.08;100912.06;5023689;28;20056;-63
2022/03/31 10:32:57;;;;;;;5.32;3.20;;;;;;;-3.55;52.03;100914.34;5023896;28;20058;-62
2022/03/31 10:35:30;;;;;;;3.58;2.53;;;;;;;-3.92;52.38;100881.84;5024503;28;21042;-62
2022/03/31 10:38:13;;;;;;;5.78;3.33;;;;;;;-3.68;52.68;100917.09;5029217;28;20053;-62
2022/03/31 10:40:46;;;;;;;5.50;3.47;;;;;;;-3.67;53.22;100929.03;5030723;28;20197;-63
2022/03/31 10:43:25;;;;;;;8.07;3.88;;;;;;;-4.05;53.73;100869.22;5030289;28;20299;-62
2022/03/31 10:46:00;;;;;;;5.90;3.10;;;;;;;-4.12;54.12;100887.56;5030040;28;20252;-62
2022/03/31 10:48:38;;;;;;;7.85;3.10;;;;;;;-3.84;54.72;100929.84;5029873;28;20120;-62
2022/03/31 10:51:13;;;;;;;8.52;2.42;;;;;;;-3.79;55.95;100933.56;5030449;28;20053;-62
2022/03/31 10:53:50;;;;;;;6.68;2.40;;;;;;;-3.69;57.19;100935.78;5031188;28;20107;-62
2022/03/31 10:56:24;;;;;;;5.00;2.00;;;;;;;-3.65;56.33;100941.91;5029637;28;20050;-62
2022/03/31 10:58:57;;;;;;;8.02;3.08;;;;;;;-3.63;55.92;100930.09;5030055;28;20049;-62
2022/03/31 11:01:31;;;;;;;9.25;2.75;;;;;;;-3.53;56.19;100938.31;5030146;28;20108;-62
2022/03/31 11:04:04;;;;;;;4.07;2.42;;;;;;;-3.45;56.27;100936.13;5030389;28;20105;-63
2022/03/31 11:06:34;;;;;;;6.00;2.80;;;;;;;-3.49;56.13;100931.69;5030025;28;20112;-62
2022/03/31 11:09:05;;;;;;;14.55;3.72;;;;;;;-3.48;56.01;100951.31;5029675;28;20116;-62
2022/03/31 11:11:38;;;;;;;9.88;3.05;;;;;;;-3.46;56.74;100949.72;5030343;28;20052;-62
2022/03/31 11:14:11;;;;;;;6.93;3.03;;;;;;;-3.54;55.77;100936.56;5030133;28;20083;-62
2022/03/31 11:16:44;;;;;;;6.53;2.75;;;;;;;-4.17;56.00;100837.94;5030716;28;20045;-63
2022/03/31 11:19:17;;;;;;;56.95;4.68;;;;;;;-3.65;56.33;100942.78;5030154;28;20062;-62
2022/03/31 11:21:48;;;;;;;35.35;4.68;;;;;;;-3.70;57.16;100954.44;5029874;28;20053;-61
2022/03/31 11:24:25;;;;;;;42.70;4.55;;;;;;;-3.78;57.37;100950.63;5030676;28;20050;-61
2022/03/31 11:26:56;;;;;;;40.78;5.22;;;;;;;-3.79;58.36;100953.97;5029938;28;20049;-62
2022/03/31 11:29:29;;;;;;;69.15;7.32;;;;;;;-3.98;58.46;100927.47;5029458;28;20053;-61
2022/03/31 11:32:02;;;;;;;35.78;6.38;;;;;;;-3.87;58.91;100955.22;5029889;28;20259;-62
2022/03/31 11:34:32;;;;;;;55.60;5.80;;;;;;;-3.90;59.05;100951.72;5030048;28;20053;-61
2022/03/31 11:37:04;;;;;;;25.08;3.72;;;;;;;-3.92;59.31;100952.44;5029981;28;20085;-61
2022/03/31 11:39:35;;;;;;;7.30;2.63;;;;;;;-4.22;59.14;100895.53;5030015;28;20069;-61
2022/03/31 11:42:09;;;;;;;19.08;3.63;;;;;;;-3.97;59.67;100938.53;5029794;28;20062;-61
2022/03/31 11:44:42;;;;;;;11.50;3.38;;;;;;;-3.96;60.50;100951.41;5030377;28;20125;-61
2022/03/31 11:47:20;;;;;;;8.10;4.18;;;;;;;-4.01;60.92;100945.16;5030057;28;20042;-61
2022/03/31 11:50:02;;;;;;;9.68;3.88;;;;;;;-4.02;60.41;100945.97;5026524;28;20051;-61
2022/03/31 11:52:35;;;;;;;12.73;4.45;;;;;;;-4.65;59.71;100862.63;5026570;28;20049;-61
2022/03/31 11:55:14;;;;;;;90.32;25.40;;;;;;;-4.41;58.58;100945.59;5026130;28;20058;-61
2022/03/31 11:57:53;;;;;;;94.22;25.90;;;;;;;-4.84;58.51;100898.97;5026353;28;20073;-61